createdAt,value
2022-10-19T00:00:04.393Z,9.10
2022-10-19T00:02:36.757Z,9.60
2022-10-19T00:05:04.879Z,10.30
2022-10-19T00:07:32.992Z,11.63
2022-10-19T00:10:01.038Z,10.23
2022-10-19T00:12:28.925Z,9.25
2022-10-19T00:14:57.898Z,8.95
2022-10-19T00:17:25.848Z,8.55
2022-10-19T00:19:55.098Z,8.93
2022-10-19T00:22:23.010Z,9.68
2022-10-19T00:24:50.900Z,9.65
2022-10-19T00:27:18.770Z,9.40
2022-10-19T00:29:46.617Z,8.45
2022-10-19T00:32:14.563Z,8.60
2022-10-19T00:34:42.566Z,10.20
2022-10-19T00:37:11.791Z,9.98
2022-10-19T00:39:40.109Z,9.70
2022-10-19T00:42:11.125Z,9.88
2022-10-19T00:45:06.857Z,9.07
2022-10-19T00:47:35.381Z,8.88
2022-10-19T00:50:03.535Z,10.02
2022-10-19T00:52:33.335Z,10.02
2022-10-19T00:55:02.675Z,8.88
2022-10-19T00:57:32.387Z,8.68
2022-10-19T01:00:02.296Z,9.38
2022-10-19T01:02:30.343Z,9.65
2022-10-19T01:04:59.341Z,10.32
2022-10-19T01:07:27.811Z,9.50
2022-10-19T01:09:57.835Z,9.25
2022-10-19T01:12:52.306Z,10.18
2022-10-19T01:15:32.340Z,10.05
2022-10-19T01:18:08.633Z,11.68
2022-10-19T01:21:12.369Z,12.75
2022-10-19T01:24:09.411Z,11.93
2022-10-19T01:27:05.697Z,10.60
2022-10-19T01:30:17.589Z,10.52
2022-10-19T01:32:59.539Z,11.32
2022-10-19T01:35:32.981Z,12.07
2022-10-19T01:38:08.995Z,11.95
2022-10-19T01:40:45.871Z,12.40
2022-10-19T01:43:24.115Z,13.77
2022-10-19T01:45:55.168Z,12.43
2022-10-19T01:48:29.334Z,12.90
2022-10-19T01:51:01.425Z,14.48
2022-10-19T01:53:32.343Z,15.50
2022-10-19T01:56:03.071Z,14.07
2022-10-19T01:58:35.824Z,13.50
2022-10-19T02:01:07.288Z,15.13
2022-10-19T02:03:38.068Z,16.20
2022-10-19T02:06:09.167Z,18.00
2022-10-19T02:08:41.562Z,18.02
2022-10-19T02:11:09.766Z,18.27
2022-10-19T02:13:40.161Z,16.77
2022-10-19T02:16:14.682Z,16.50
2022-10-19T02:18:47.031Z,16.98
2022-10-19T02:21:15.350Z,16.73
2022-10-19T02:23:43.262Z,15.82
2022-10-19T02:26:11.310Z,17.52
2022-10-19T02:28:39.560Z,18.90
2022-10-19T02:31:07.591Z,17.42
2022-10-19T02:33:35.642Z,19.05
2022-10-19T02:36:05.320Z,18.42
2022-10-19T02:38:33.338Z,19.42
2022-10-19T02:41:08.074Z,20.77
2022-10-19T02:43:39.926Z,22.38
2022-10-19T02:46:15.076Z,22.98
2022-10-19T02:48:43.879Z,26.08
2022-10-19T02:51:31.701Z,26.95
2022-10-19T02:54:02.627Z,25.63
2022-10-19T02:56:33.377Z,25.60
2022-10-19T02:59:01.318Z,26.50
2022-10-19T03:01:29.197Z,29.83
2022-10-19T03:03:57.123Z,26.73
2022-10-19T03:06:25.025Z,28.02
2022-10-19T03:08:54.290Z,30.67
2022-10-19T03:11:22.204Z,32.60
2022-10-19T03:13:50.080Z,32.00
2022-10-19T03:16:18.014Z,32.10
2022-10-19T03:18:45.943Z,32.28
2022-10-19T03:21:14.572Z,35.22
2022-10-19T03:23:42.961Z,42.80
2022-10-19T03:26:15.583Z,50.53
2022-10-19T03:28:43.930Z,48.47
2022-10-19T03:31:11.963Z,47.00
2022-10-19T03:33:39.967Z,43.17
2022-10-19T03:36:14.700Z,40.72
2022-10-19T03:38:42.622Z,38.42
2022-10-19T03:41:12.258Z,36.67
2022-10-19T03:43:41.217Z,38.17
2022-10-19T03:46:09.395Z,36.53
2022-10-19T03:48:37.471Z,38.97
2022-10-19T03:51:07.461Z,36.30
2022-10-19T03:53:35.763Z,34.28
2022-10-19T03:56:05.557Z,30.33
2022-10-19T03:58:36.900Z,33.60
2022-10-19T04:01:09.459Z,32.05
2022-10-19T04:03:37.645Z,35.40
2022-10-19T04:06:07.059Z,33.08
2022-10-19T04:08:35.531Z,32.92
2022-10-19T04:11:04.400Z,30.95
2022-10-19T04:13:34.678Z,30.95
2022-10-19T04:16:03.095Z,31.45
2022-10-19T04:18:31.039Z,36.75
2022-10-19T04:21:00.146Z,35.03
2022-10-19T04:23:29.162Z,35.00
2022-10-19T04:26:01.359Z,32.55
2022-10-19T04:28:29.389Z,32.15
2022-10-19T04:31:02.422Z,28.83
2022-10-19T04:33:30.429Z,27.50
2022-10-19T04:36:00.309Z,26.60
2022-10-19T04:38:29.450Z,23.83
2022-10-19T04:40:57.660Z,23.80
2022-10-19T04:43:25.555Z,23.80
2022-10-19T04:45:53.454Z,23.38
2022-10-19T04:48:22.834Z,24.65
2022-10-19T04:50:50.789Z,23.35
2022-10-19T04:53:19.294Z,20.90
2022-10-19T04:55:47.266Z,21.15
2022-10-19T04:58:15.176Z,19.88
2022-10-19T05:00:43.063Z,16.58
2022-10-19T05:03:10.991Z,17.73
2022-10-19T05:05:40.254Z,18.08
2022-10-19T05:08:08.454Z,18.95
2022-10-19T05:10:37.023Z,19.38
2022-10-19T05:13:05.466Z,17.77
2022-10-19T05:15:33.478Z,17.58
2022-10-19T05:18:02.185Z,17.88
2022-10-19T05:20:30.050Z,15.77
2022-10-19T05:23:03.285Z,14.50
2022-10-19T05:25:34.323Z,14.93
2022-10-19T05:28:02.190Z,13.68
2022-10-19T05:30:32.147Z,14.43
2022-10-19T05:33:00.062Z,13.95
2022-10-19T05:35:27.941Z,15.27
2022-10-19T05:37:56.194Z,15.73
2022-10-19T05:40:25.431Z,16.48
2022-10-19T05:42:53.295Z,15.88
2022-10-19T05:45:21.253Z,16.02
2022-10-19T05:47:49.119Z,15.48
2022-10-19T05:50:17.131Z,15.40
2022-10-19T05:52:45.018Z,15.90
2022-10-19T05:55:12.912Z,16.35
2022-10-19T05:57:42.163Z,16.90
2022-10-19T06:00:11.749Z,17.95
2022-10-19T06:02:39.633Z,17.75
2022-10-19T06:05:08.574Z,22.75
2022-10-19T06:07:36.715Z,26.67
2022-10-19T06:10:05.494Z,30.77
2022-10-19T06:12:33.364Z,29.95
2022-10-19T06:15:02.594Z,27.58
2022-10-19T06:17:30.707Z,25.17
2022-10-19T06:19:58.595Z,25.80
2022-10-19T06:22:26.489Z,26.58
2022-10-19T06:24:54.422Z,26.50
2022-10-19T06:27:22.323Z,27.40
2022-10-19T06:29:50.365Z,28.13
2022-10-19T06:32:19.861Z,25.92
2022-10-19T06:34:47.822Z,27.05
2022-10-19T06:37:15.699Z,28.55
2022-10-19T06:39:43.630Z,26.70
2022-10-19T06:42:11.550Z,28.58
2022-10-19T06:44:39.404Z,28.05
2022-10-19T06:47:07.282Z,26.95
2022-10-19T06:49:37.178Z,27.02
2022-10-19T06:52:05.826Z,28.48
2022-10-19T06:54:33.695Z,26.27
2022-10-19T06:57:01.587Z,29.00
2022-10-19T06:59:29.523Z,31.02
2022-10-19T07:01:58.585Z,31.17
2022-10-19T07:04:26.482Z,29.35
2022-10-19T07:06:55.720Z,30.33
2022-10-19T07:09:23.758Z,30.63
2022-10-19T07:11:52.115Z,33.05
2022-10-19T07:14:19.974Z,33.17
2022-10-19T07:16:50.416Z,31.10
2022-10-19T07:19:18.895Z,30.23
2022-10-19T07:21:46.758Z,31.85
2022-10-19T07:24:16.011Z,31.30
2022-10-19T07:26:44.076Z,31.67
2022-10-19T07:29:11.994Z,31.75
2022-10-19T07:31:39.979Z,32.25
2022-10-19T07:34:07.970Z,33.22
2022-10-19T07:36:37.001Z,33.63
2022-10-19T07:39:06.325Z,35.78
2022-10-19T07:41:35.805Z,35.55
2022-10-19T07:44:05.906Z,37.42
2022-10-19T07:46:37.103Z,37.05
2022-10-19T07:49:07.613Z,38.20
2022-10-19T07:51:35.520Z,40.00
2022-10-19T07:54:04.036Z,39.38
2022-10-19T07:56:32.151Z,37.95
2022-10-19T07:59:02.773Z,36.70
2022-10-19T08:01:32.781Z,37.67
2022-10-19T08:06:50.017Z,37.75
2022-10-19T08:09:40.191Z,36.63
2022-10-19T08:12:07.000Z,39.58
2022-10-19T08:14:36.272Z,39.85
2022-10-19T08:17:04.250Z,40.25
2022-10-19T08:19:32.152Z,35.58
2022-10-19T08:22:00.115Z,37.70
2022-10-19T08:24:27.976Z,34.88
2022-10-19T08:26:55.859Z,32.33
2022-10-19T08:29:25.532Z,31.55
2022-10-19T08:31:57.027Z,28.17
2022-10-19T08:34:25.248Z,30.65
2022-10-19T08:36:53.133Z,28.95
2022-10-19T08:39:21.064Z,27.65
2022-10-19T08:41:59.076Z,25.38
2022-10-19T08:45:02.637Z,24.30
2022-10-19T08:47:46.196Z,19.83
2022-10-19T08:50:21.398Z,19.58
2022-10-19T08:52:56.272Z,16.55
2022-10-19T08:55:30.426Z,16.08
2022-10-19T08:58:05.442Z,14.90
2022-10-19T09:00:42.503Z,13.10
2022-10-19T09:03:37.430Z,11.65
2022-10-19T09:06:19.949Z,11.50
2022-10-19T09:08:48.533Z,10.73
2022-10-19T09:11:21.804Z,9.85
2022-10-19T09:14:04.800Z,8.52
2022-10-19T09:16:33.638Z,7.55
2022-10-19T09:19:03.228Z,7.38
2022-10-19T09:21:44.578Z,6.78
2022-10-19T09:24:28.673Z,7.68
2022-10-19T09:26:59.093Z,5.85
2022-10-19T09:29:32.261Z,5.03
2022-10-19T09:32:04.730Z,4.40
2022-10-19T09:37:04.440Z,3.33
2022-10-19T09:39:32.488Z,3.47
2022-10-19T09:42:06.139Z,3.70
2022-10-19T09:44:34.162Z,5.47
2022-10-19T09:47:17.364Z,4.47
2022-10-19T09:49:48.105Z,4.70
2022-10-19T09:52:26.439Z,4.15
2022-10-19T09:55:02.091Z,3.33
2022-10-19T09:57:30.361Z,4.22
2022-10-19T09:59:58.494Z,3.40
2022-10-19T10:02:32.452Z,3.25
2022-10-19T10:05:08.351Z,2.88
2022-10-19T10:07:39.227Z,3.00
2022-10-19T10:10:12.712Z,2.40
2022-10-19T10:12:41.917Z,2.70
2022-10-19T10:15:17.394Z,3.08
2022-10-19T10:17:47.321Z,2.47
2022-10-19T10:20:27.777Z,2.60
2022-10-19T10:22:58.619Z,2.85
2022-10-19T10:25:30.086Z,2.08
2022-10-19T10:28:00.951Z,2.40
2022-10-19T10:30:34.958Z,2.67
2022-10-19T10:33:21.163Z,2.55
2022-10-19T10:35:55.875Z,2.25
2022-10-19T10:40:57.231Z,2.38
2022-10-19T10:43:31.663Z,3.00
2022-10-19T10:46:04.961Z,2.40
2022-10-19T10:48:37.257Z,2.50
2022-10-19T10:53:39.913Z,1.98
2022-10-19T10:56:23.015Z,2.08
2022-10-19T10:58:58.335Z,2.20
2022-10-19T11:01:31.381Z,2.00
2022-10-19T11:04:05.769Z,2.10
2022-10-19T11:06:42.279Z,2.50
2022-10-19T11:09:21.220Z,2.38
2022-10-19T11:11:55.879Z,2.33
2022-10-19T11:14:30.061Z,2.53
2022-10-19T11:17:00.866Z,2.40
2022-10-19T11:19:33.236Z,2.50
2022-10-19T11:24:48.736Z,2.13
2022-10-19T11:27:28.973Z,2.53
2022-10-19T11:30:11.853Z,1.90
2022-10-19T11:32:53.531Z,2.22
2022-10-19T11:35:39.490Z,1.70
2022-10-19T11:38:29.569Z,2.00
2022-10-19T11:41:23.371Z,1.90
2022-10-19T11:44:05.812Z,2.35
2022-10-19T11:46:40.997Z,1.80
2022-10-19T11:49:19.581Z,2.05
2022-10-19T11:51:53.493Z,2.08
2022-10-19T11:54:39.751Z,1.83
2022-10-19T11:57:14.282Z,1.63
2022-10-19T12:00:13.618Z,1.45
2022-10-19T12:03:03.734Z,1.55
2022-10-19T12:05:39.817Z,1.70
2022-10-19T12:08:22.610Z,2.03
2022-10-19T12:10:58.545Z,1.40
2022-10-19T12:13:40.726Z,1.92
2022-10-19T12:16:10.327Z,1.85
2022-10-19T12:18:42.903Z,1.70
2022-10-19T12:21:14.556Z,1.73
2022-10-19T12:23:46.731Z,2.10
2022-10-19T12:28:56.580Z,2.08
2022-10-19T12:31:26.897Z,1.77
2022-10-19T12:34:01.736Z,2.30
2022-10-19T12:36:41.309Z,2.00
2022-10-19T12:39:17.439Z,2.35
2022-10-19T12:41:53.731Z,2.28
2022-10-19T12:44:37.974Z,2.40
2022-10-19T12:47:12.489Z,2.00
2022-10-19T12:49:49.828Z,2.17
2022-10-19T12:52:36.321Z,1.90
2022-10-19T12:55:13.934Z,2.20
2022-10-19T12:57:48.059Z,2.28
2022-10-19T13:00:24.471Z,1.90
2022-10-19T13:03:00.908Z,1.88
2022-10-19T13:05:31.374Z,2.08
2022-10-19T13:08:01.257Z,1.70
2022-10-19T13:10:30.846Z,1.90
2022-10-19T13:13:00.387Z,1.60
2022-10-19T13:15:52.719Z,1.45
2022-10-19T13:19:08.332Z,1.90
2022-10-19T13:21:50.399Z,1.75
2022-10-19T13:24:28.615Z,1.50
2022-10-19T13:27:35.519Z,1.50
2022-10-19T13:30:05.997Z,1.63
2022-10-19T13:32:44.250Z,1.55
2022-10-19T13:35:36.861Z,1.60
2022-10-19T13:38:27.418Z,1.80
2022-10-19T13:41:03.385Z,1.80
2022-10-19T13:43:33.849Z,1.92
2022-10-19T13:46:10.359Z,2.13
2022-10-19T13:49:04.182Z,2.03
2022-10-19T13:51:38.725Z,1.92
2022-10-19T13:54:20.488Z,2.00
2022-10-19T13:57:06.299Z,1.95
2022-10-19T13:59:53.790Z,1.80
2022-10-19T14:02:57.215Z,1.80
2022-10-19T14:05:53.689Z,1.88
2022-10-19T14:09:06.041Z,2.05
2022-10-19T14:11:37.434Z,2.00
2022-10-19T14:14:16.105Z,1.93
2022-10-19T14:16:58.292Z,2.10
2022-10-19T14:19:33.430Z,1.85
2022-10-19T14:24:32.909Z,1.92
2022-10-19T14:27:02.864Z,2.05
2022-10-19T14:29:32.381Z,2.00
2022-10-19T14:32:00.650Z,1.65
2022-10-19T14:34:29.920Z,1.67
2022-10-19T14:36:57.833Z,2.20
2022-10-19T14:39:31.524Z,2.30
2022-10-19T14:42:05.720Z,2.00
2022-10-19T14:44:39.747Z,2.10
2022-10-19T14:47:21.199Z,1.90
2022-10-19T14:49:51.377Z,2.58
2022-10-19T14:52:24.136Z,2.42
2022-10-19T14:54:56.066Z,1.95
2022-10-19T14:57:28.132Z,1.90
2022-10-19T14:59:59.374Z,2.28
2022-10-19T15:02:32.079Z,2.22
2022-10-19T15:05:03.997Z,1.80
2022-10-19T15:07:36.622Z,2.10
2022-10-19T15:10:09.152Z,2.20
2022-10-19T15:12:39.646Z,2.10
2022-10-19T15:15:14.764Z,1.80
2022-10-19T15:17:53.164Z,1.67
2022-10-19T15:20:28.981Z,2.00
2022-10-19T15:22:57.804Z,1.98
2022-10-19T15:25:33.988Z,2.00
2022-10-19T15:28:20.519Z,2.03
2022-10-19T15:31:00.140Z,2.42
2022-10-19T15:33:28.321Z,2.10
2022-10-19T15:36:07.260Z,2.63
2022-10-19T15:38:36.677Z,1.98
2022-10-19T15:41:05.627Z,2.63
2022-10-19T15:43:46.352Z,2.60
2022-10-19T15:46:26.223Z,2.58
2022-10-19T15:48:55.986Z,2.53
2022-10-19T15:51:49.769Z,2.45
2022-10-19T15:54:19.488Z,2.60
2022-10-19T15:56:48.790Z,2.53
2022-10-19T15:59:18.769Z,2.30
2022-10-19T16:01:52.623Z,2.13
2022-10-19T16:04:21.695Z,2.42
2022-10-19T16:06:51.139Z,2.40
2022-10-19T16:09:22.213Z,2.65
2022-10-19T16:11:56.282Z,2.60
2022-10-19T16:14:24.315Z,3.17
2022-10-19T16:16:52.223Z,2.90
2022-10-19T16:19:20.150Z,2.75
2022-10-19T16:21:50.314Z,2.80
2022-10-19T16:24:19.800Z,2.50
2022-10-19T16:26:47.737Z,2.80
2022-10-19T16:29:15.687Z,2.65
2022-10-19T16:31:43.545Z,2.70
2022-10-19T16:34:11.447Z,2.42
2022-10-19T16:36:39.358Z,3.15
2022-10-19T16:39:07.240Z,2.85
2022-10-19T16:41:39.521Z,3.25
2022-10-19T16:46:35.419Z,2.85
2022-10-19T16:49:03.287Z,2.38
2022-10-19T16:51:36.264Z,2.90
2022-10-19T16:54:06.051Z,2.72
2022-10-19T16:56:36.364Z,2.65
2022-10-19T16:59:05.834Z,2.58
2022-10-19T17:01:35.792Z,2.72
2022-10-19T17:04:03.786Z,2.58
2022-10-19T17:06:31.926Z,2.85
2022-10-19T17:09:36.679Z,2.50
2022-10-19T17:11:49.633Z,2.65
2022-10-19T17:14:17.576Z,2.70
2022-10-19T17:16:45.535Z,2.35
2022-10-19T17:19:14.217Z,2.80
2022-10-19T17:21:42.554Z,2.60
2022-10-19T17:24:18.660Z,2.40
2022-10-19T17:26:52.365Z,2.35
2022-10-19T17:29:21.118Z,2.53
2022-10-19T17:31:49.254Z,2.70
2022-10-19T17:34:17.658Z,3.05
2022-10-19T17:36:46.653Z,3.08
2022-10-19T17:39:17.880Z,2.78
2022-10-19T17:41:46.776Z,2.83
2022-10-19T17:44:16.681Z,3.17
2022-10-19T17:46:44.829Z,2.70
2022-10-19T17:49:13.677Z,2.92
2022-10-19T17:51:41.745Z,2.92
2022-10-19T17:54:12.964Z,3.17
2022-10-19T17:56:44.865Z,3.08
2022-10-19T17:59:13.258Z,2.95
2022-10-19T18:01:42.754Z,2.83
2022-10-19T18:04:10.727Z,2.75
2022-10-19T18:06:39.376Z,3.25
2022-10-19T18:09:09.735Z,3.03
2022-10-19T18:11:40.522Z,3.17
2022-10-19T18:14:10.486Z,3.53
2022-10-19T18:16:40.543Z,3.50
2022-10-19T18:19:10.022Z,3.60
2022-10-19T18:21:40.161Z,3.85
2022-10-19T18:24:12.704Z,3.90
2022-10-19T18:26:46.414Z,4.15
2022-10-19T18:29:18.348Z,4.15
2022-10-19T18:31:51.356Z,4.13
2022-10-19T18:34:22.712Z,4.60
2022-10-19T18:36:50.741Z,4.65
2022-10-19T18:39:19.371Z,4.72
2022-10-19T18:41:48.586Z,4.80
2022-10-19T18:44:16.496Z,5.00
2022-10-19T18:46:45.438Z,4.78
2022-10-19T18:49:13.586Z,4.72
2022-10-19T18:51:43.268Z,4.90
2022-10-19T18:54:12.354Z,5.22
2022-10-19T18:56:40.293Z,4.80
2022-10-19T18:59:08.182Z,5.22
2022-10-19T19:01:36.221Z,4.97
2022-10-19T19:04:08.678Z,4.93
2022-10-19T19:09:08.445Z,5.63
2022-10-19T19:11:38.391Z,5.25
2022-10-19T19:14:08.413Z,5.57
2022-10-19T19:16:38.310Z,5.55
2022-10-19T19:19:06.931Z,5.05
2022-10-19T19:21:36.466Z,5.32
2022-10-19T19:24:07.699Z,5.47
2022-10-19T19:26:42.126Z,5.10
2022-10-19T19:29:10.256Z,4.80
2022-10-19T19:31:39.288Z,5.15
2022-10-19T19:34:09.431Z,5.65
2022-10-19T19:36:38.048Z,5.50
2022-10-19T19:39:07.368Z,5.80
2022-10-19T19:41:36.798Z,5.68
2022-10-19T19:44:04.715Z,5.13
2022-10-19T19:46:32.771Z,6.22
2022-10-19T19:49:02.939Z,5.55
2022-10-19T19:51:32.040Z,5.68
2022-10-19T19:54:00.098Z,5.72
2022-10-19T19:56:29.853Z,5.95
2022-10-19T19:58:59.954Z,6.28
2022-10-19T20:01:28.371Z,5.68
2022-10-19T20:04:00.949Z,6.25
2022-10-19T20:06:28.898Z,5.75
2022-10-19T20:08:57.563Z,6.30
2022-10-19T20:11:29.020Z,5.85
2022-10-19T20:13:58.646Z,6.30
2022-10-19T20:16:29.427Z,5.80
2022-10-19T20:19:01.729Z,6.47
2022-10-19T20:21:31.568Z,6.05
2022-10-19T20:23:59.450Z,6.30
2022-10-19T20:26:28.161Z,6.43
2022-10-19T20:28:57.854Z,6.03
2022-10-19T20:31:26.055Z,6.47
2022-10-19T20:33:54.013Z,6.60
2022-10-19T20:36:23.531Z,6.60
2022-10-19T20:38:53.257Z,6.78
2022-10-19T20:41:22.808Z,7.72
2022-10-19T20:43:50.936Z,6.43
2022-10-19T20:46:22.734Z,7.50
2022-10-19T20:48:51.456Z,6.50
2022-10-19T20:51:21.127Z,6.32
2022-10-19T20:53:52.093Z,6.75
2022-10-19T20:56:23.113Z,7.60
2022-10-19T20:58:55.993Z,6.45
2022-10-19T21:01:25.896Z,7.53
2022-10-19T21:03:55.474Z,7.07
2022-10-19T21:06:24.949Z,7.38
2022-10-19T21:08:53.528Z,6.55
2022-10-19T21:11:23.193Z,7.05
2022-10-19T21:13:56.284Z,7.15
2022-10-19T21:16:28.325Z,6.85
2022-10-19T21:18:56.481Z,7.43
2022-10-19T21:21:27.169Z,7.47
2022-10-19T21:23:56.503Z,8.10
2022-10-19T21:26:26.464Z,7.72
2022-10-19T21:28:54.433Z,7.70
2022-10-19T21:31:23.796Z,7.32
2022-10-19T21:33:53.588Z,7.30
2022-10-19T21:36:22.484Z,7.80
2022-10-19T21:38:50.386Z,7.13
2022-10-19T21:41:23.758Z,7.78
2022-10-19T21:43:54.280Z,6.85
2022-10-19T21:46:24.115Z,7.72
2022-10-19T21:48:55.135Z,7.30
2022-10-19T21:51:31.790Z,6.72
2022-10-19T21:54:00.006Z,7.63
2022-10-19T21:56:28.892Z,7.80
2022-10-19T21:58:56.919Z,7.20
2022-10-19T22:01:27.431Z,8.02
2022-10-19T22:04:01.194Z,8.60
2022-10-19T22:06:31.502Z,7.55
2022-10-19T22:09:00.090Z,8.10
2022-10-19T22:11:28.885Z,7.93
2022-10-19T22:13:59.062Z,7.82
2022-10-19T22:16:28.893Z,7.85
2022-10-19T22:18:57.464Z,7.88
2022-10-19T22:21:29.254Z,7.55
2022-10-19T22:23:58.613Z,7.45
2022-10-19T22:26:28.495Z,7.65
2022-10-19T22:28:56.808Z,8.05
2022-10-19T22:31:25.601Z,8.35
2022-10-19T22:33:53.514Z,7.38
2022-10-19T22:36:21.569Z,7.57
2022-10-19T22:38:50.850Z,7.95
2022-10-19T22:42:13.914Z,7.97
2022-10-19T22:44:41.838Z,7.70
2022-10-19T22:47:09.741Z,7.78
2022-10-19T22:49:37.662Z,8.20
2022-10-19T22:52:06.031Z,8.02
2022-10-19T22:54:35.270Z,8.82
2022-10-19T22:57:03.309Z,8.45
2022-10-19T22:59:31.252Z,9.40
2022-10-19T23:01:59.235Z,8.00
2022-10-19T23:04:27.719Z,8.32
2022-10-19T23:06:55.947Z,8.60
2022-10-19T23:09:24.095Z,9.18
2022-10-19T23:11:53.358Z,9.40
2022-10-19T23:14:21.232Z,9.32
2022-10-19T23:16:49.167Z,10.43
2022-10-19T23:19:17.058Z,9.73
2022-10-19T23:21:44.930Z,9.88
2022-10-19T23:24:12.838Z,10.88
2022-10-19T23:26:40.831Z,10.68
2022-10-19T23:29:10.542Z,10.68
2022-10-19T23:31:38.412Z,10.63
2022-10-19T23:34:06.355Z,10.77
2022-10-19T23:36:34.309Z,11.30
2022-10-19T23:39:02.244Z,11.65
2022-10-19T23:41:30.154Z,11.48
2022-10-19T23:43:58.022Z,11.57
2022-10-19T23:46:27.278Z,11.70
2022-10-19T23:48:55.171Z,12.02
2022-10-19T23:51:23.779Z,12.38
2022-10-19T23:53:53.164Z,12.18
2022-10-19T23:56:23.226Z,12.50
2022-10-19T23:58:51.730Z,12.18
